createdAt,value
2018-07-13T00:00:06.363Z,31.8
2018-07-13T00:05:01.241Z,32.0
2018-07-13T00:10:01.305Z,31.3
2018-07-13T00:15:01.240Z,31.9
2018-07-13T00:20:01.292Z,31.8
2018-07-13T00:25:01.252Z,33.2
2018-07-13T00:30:01.372Z,33.1
2018-07-13T00:35:01.239Z,33.7
2018-07-13T00:40:01.240Z,33.5
2018-07-13T00:45:01.328Z,34.6
2018-07-13T00:50:01.228Z,35.0
2018-07-13T00:55:01.233Z,35.2
2018-07-13T01:00:01.381Z,35.2
2018-07-13T01:05:01.260Z,35.4
2018-07-13T01:10:01.365Z,34.4
2018-07-13T01:15:01.242Z,34.1
2018-07-13T01:20:01.313Z,33.4
2018-07-13T01:25:06.232Z,33.1
2018-07-13T01:30:01.297Z,33.5
2018-07-13T01:35:01.231Z,33.9
2018-07-13T01:40:01.214Z,34.1
2018-07-13T01:45:01.223Z,35.4
2018-07-13T01:50:01.308Z,35.2
2018-07-13T01:55:01.242Z,35.2
2018-07-13T02:00:01.306Z,35.2
2018-07-13T02:05:01.307Z,35.2
2018-07-13T02:10:01.372Z,34.6
2018-07-13T02:16:06.230Z,35.0
2018-07-13T02:21:01.321Z,34.5
2018-07-13T02:26:06.231Z,34.2
2018-07-13T02:31:01.302Z,33.8
2018-07-13T02:36:01.239Z,32.6
2018-07-13T02:41:01.305Z,31.6
2018-07-13T02:46:01.241Z,30.8
2018-07-13T02:51:06.289Z,30.3
2018-07-13T02:56:01.298Z,29.8
2018-07-13T03:01:01.379Z,30.3
2018-07-13T03:06:01.262Z,29.8
2018-07-13T03:11:01.310Z,29.9
2018-07-13T03:16:01.248Z,29.4
2018-07-13T03:21:01.308Z,28.8
2018-07-13T03:26:01.248Z,28.4
2018-07-13T03:31:01.361Z,28.6
2018-07-13T03:36:01.232Z,27.3
2018-07-13T03:41:01.358Z,26.6
2018-07-13T03:46:01.238Z,25.3
2018-07-13T03:51:01.313Z,24.2
2018-07-13T03:56:01.240Z,22.4
2018-07-13T04:01:01.298Z,22.5
2018-07-13T04:06:06.307Z,21.8
2018-07-13T04:11:01.375Z,22.0
2018-07-13T04:16:01.292Z,21.4
2018-07-13T04:21:01.298Z,22.2
2018-07-13T04:26:06.245Z,22.1
2018-07-13T04:31:01.301Z,21.8
2018-07-13T04:36:01.239Z,21.9
2018-07-13T04:41:01.561Z,22.4
2018-07-13T04:46:01.247Z,21.9
2018-07-13T04:51:01.307Z,21.0
2018-07-13T04:56:01.231Z,20.8
2018-07-13T05:01:06.293Z,20.6
2018-07-13T05:06:01.262Z,20.4
2018-07-13T05:11:06.300Z,20.7
2018-07-13T05:16:06.238Z,21.0
2018-07-13T05:21:01.253Z,21.3
2018-07-13T05:26:01.241Z,20.9
2018-07-13T05:31:01.314Z,20.5
2018-07-13T05:36:01.247Z,20.3
2018-07-13T05:41:01.290Z,20.6
2018-07-13T05:46:01.240Z,20.2
2018-07-13T05:51:01.364Z,20.2
2018-07-13T05:56:01.289Z,19.4
2018-07-13T06:01:01.302Z,18.8
2018-07-13T06:06:01.301Z,17.8
2018-07-13T06:11:01.259Z,17.6
2018-07-13T06:16:01.238Z,17.6
2018-07-13T06:21:01.304Z,18.8
2018-07-13T06:26:01.232Z,18.6
2018-07-13T06:31:01.358Z,18.4
2018-07-13T06:36:01.231Z,18.3
2018-07-13T06:41:01.300Z,18.0
2018-07-13T06:46:01.241Z,17.0
2018-07-13T06:51:01.306Z,17.0
2018-07-13T07:01:01.292Z,16.6
2018-07-13T07:06:01.235Z,16.2
2018-07-13T07:11:01.365Z,15.7
2018-07-13T07:16:01.237Z,15.4
2018-07-13T07:21:06.320Z,15.0
2018-07-13T07:26:01.243Z,15.5
2018-07-13T07:31:01.310Z,15.7
2018-07-13T07:36:01.301Z,15.2
2018-07-13T07:41:01.230Z,15.4
2018-07-13T07:46:06.236Z,15.2
2018-07-13T07:51:01.298Z,15.1
2018-07-13T08:01:01.240Z,15.5
2018-07-13T08:06:01.327Z,15.7
2018-07-13T08:11:06.314Z,16.2
2018-07-13T08:16:01.284Z,15.8
2018-07-13T08:22:01.363Z,15.1
2018-07-13T08:32:01.240Z,15.3
2018-07-13T08:37:01.312Z,15.0
2018-07-13T08:42:01.267Z,14.5
2018-07-13T08:48:02.262Z,14.6
2018-07-13T08:53:01.242Z,14.6
2018-07-13T08:58:01.239Z,13.4
2018-07-13T09:03:01.376Z,13.3
2018-07-13T09:08:01.310Z,13.7
2018-07-13T09:18:06.551Z,12.9
2018-07-13T09:23:01.316Z,12.4
2018-07-13T09:29:01.336Z,12.0
2018-07-13T09:34:01.280Z,11.7
2018-07-13T09:39:01.417Z,11.2
2018-07-13T09:44:01.272Z,12.0
2018-07-13T09:49:01.483Z,11.6
2018-07-13T09:54:01.922Z,10.9
2018-07-13T09:59:01.335Z,10.9
2018-07-13T10:05:01.230Z,10.8
2018-07-13T10:10:01.358Z,9.7
2018-07-13T10:15:06.236Z,10.2
2018-07-13T10:25:01.319Z,9.2
2018-07-13T10:30:01.377Z,9.1
2018-07-13T10:35:01.249Z,9.7
2018-07-13T10:40:01.366Z,9.4
2018-07-13T10:45:01.276Z,9.6
2018-07-13T10:55:01.392Z,10.5
2018-07-13T11:00:01.300Z,10.4
2018-07-13T11:05:06.249Z,10.3
2018-07-13T11:10:01.395Z,10.0
2018-07-13T11:15:06.252Z,9.6
2018-07-13T11:20:01.363Z,9.2
2018-07-13T11:25:01.254Z,8.9
2018-07-13T11:30:01.306Z,8.7
2018-07-13T11:35:01.245Z,8.7
2018-07-13T11:40:01.308Z,9.1
2018-07-13T11:45:01.244Z,9.4
2018-07-13T11:50:01.256Z,9.6
2018-07-13T11:55:01.226Z,9.6
2018-07-13T12:00:01.356Z,9.8
2018-07-13T12:05:01.232Z,9.6
2018-07-13T12:10:01.297Z,9.6
2018-07-13T12:15:01.236Z,9.6
2018-07-13T12:20:01.506Z,9.6
2018-07-13T12:25:01.244Z,9.9
2018-07-13T12:30:01.306Z,10.9
2018-07-13T12:35:01.233Z,10.5
2018-07-13T12:40:01.297Z,10.8
2018-07-13T12:45:01.240Z,10.8
2018-07-13T12:50:01.308Z,10.5
2018-07-13T12:55:01.256Z,9.8
2018-07-13T13:00:06.359Z,10.0
2018-07-13T13:05:01.258Z,9.8
2018-07-13T13:10:06.371Z,10.2
2018-07-13T13:15:06.233Z,10.1
2018-07-13T13:20:01.399Z,10.5
2018-07-13T13:25:01.239Z,10.7
2018-07-13T13:30:01.370Z,10.9
2018-07-13T13:35:06.254Z,11.2
2018-07-13T13:40:01.446Z,10.8
2018-07-13T13:45:01.240Z,10.5
2018-07-13T13:50:06.361Z,10.2
2018-07-13T13:55:06.235Z,9.6
2018-07-13T14:00:06.302Z,8.9
2018-07-13T14:05:06.238Z,9.0
2018-07-13T14:10:01.368Z,8.4
2018-07-13T14:15:01.239Z,8.4
2018-07-13T14:20:01.306Z,8.5
2018-07-13T14:25:01.242Z,9.0
2018-07-13T14:36:02.255Z,9.4
2018-07-13T14:41:01.303Z,9.6
2018-07-13T14:46:01.246Z,9.9
2018-07-13T14:51:01.374Z,10.0
2018-07-13T14:56:01.308Z,10.4
2018-07-13T15:01:01.242Z,10.0
2018-07-13T15:06:01.519Z,10.4
2018-07-13T15:11:01.307Z,9.8
2018-07-13T15:16:01.235Z,9.2
2018-07-13T15:21:01.296Z,9.0
2018-07-13T15:26:01.238Z,9.1
2018-07-13T15:31:01.364Z,9.0
2018-07-13T15:36:01.235Z,10.0
2018-07-13T15:41:01.303Z,10.6
2018-07-13T15:46:01.240Z,11.4
2018-07-13T15:51:06.307Z,11.7
2018-07-13T16:06:06.295Z,11.6
2018-07-13T16:11:07.262Z,11.6
2018-07-13T16:16:01.271Z,11.5
2018-07-13T16:21:06.236Z,11.4
2018-07-13T16:26:06.241Z,11.3
2018-07-13T16:36:06.312Z,11.2
2018-07-13T16:41:06.383Z,11.5
2018-07-13T16:46:01.267Z,12.1
2018-07-13T16:51:01.362Z,12.4
2018-07-13T16:56:01.242Z,12.6
2018-07-13T17:01:01.248Z,12.2
2018-07-13T17:06:01.249Z,11.6
2018-07-13T17:11:01.313Z,10.9
2018-07-13T17:16:01.246Z,10.2
2018-07-13T17:21:01.377Z,10.5
2018-07-13T17:26:01.235Z,10.2
2018-07-13T17:31:01.245Z,10.2
2018-07-13T17:41:01.306Z,9.7
2018-07-13T17:46:01.244Z,9.2
2018-07-13T17:51:01.377Z,9.2
2018-07-13T17:57:06.234Z,9.4
2018-07-13T18:02:06.298Z,10.4
2018-07-13T18:07:06.235Z,10.5
2018-07-13T18:12:06.306Z,10.5
2018-07-13T18:17:01.255Z,11.0
2018-07-13T18:22:01.303Z,11.8
2018-07-13T18:27:01.252Z,12.0
2018-07-13T18:32:01.379Z,12.8
2018-07-13T18:42:01.332Z,12.6
2018-07-13T18:47:01.262Z,12.8
2018-07-13T18:52:01.241Z,12.7
2018-07-13T18:57:01.241Z,12.3
2018-07-13T19:02:01.306Z,12.6
2018-07-13T19:07:01.250Z,12.7
2018-07-13T19:12:01.366Z,11.8
2018-07-13T19:17:01.303Z,11.6
2018-07-13T19:22:01.316Z,11.5
2018-07-13T19:27:01.244Z,11.1
2018-07-13T19:32:01.308Z,11.2
2018-07-13T19:37:01.255Z,11.3
2018-07-13T19:47:01.310Z,11.6
2018-07-13T19:52:01.363Z,11.7
2018-07-13T19:57:01.454Z,11.8
2018-07-13T20:02:01.306Z,11.6
2018-07-13T20:07:01.229Z,11.6
2018-07-13T20:12:01.249Z,11.2
2018-07-13T20:22:01.379Z,10.9
2018-07-13T20:27:01.248Z,11.3
2018-07-13T20:32:01.344Z,11.1
2018-07-13T20:37:01.230Z,11.1
2018-07-13T20:42:01.297Z,11.6
2018-07-13T20:52:01.240Z,10.7
2018-07-13T20:57:01.241Z,10.6
2018-07-13T21:02:01.252Z,10.8
2018-07-13T21:07:01.243Z,11.0
2018-07-13T21:12:01.293Z,11.5
2018-07-13T21:17:06.235Z,11.7
2018-07-13T21:22:01.234Z,11.7
2018-07-13T21:27:01.496Z,11.6
2018-07-13T21:32:01.369Z,11.0
2018-07-13T21:37:01.236Z,10.8
2018-07-13T21:42:01.306Z,10.5
2018-07-13T21:47:01.246Z,10.3
2018-07-13T21:52:01.432Z,10.4
2018-07-13T21:57:01.236Z,10.4
2018-07-13T22:02:01.300Z,10.2
2018-07-13T22:17:01.301Z,9.7
2018-07-13T22:22:01.328Z,9.6
2018-07-13T22:27:01.246Z,9.7
2018-07-13T22:32:01.308Z,9.4
2018-07-13T22:37:01.226Z,8.9
2018-07-13T22:42:01.231Z,8.6
2018-07-13T22:47:01.234Z,7.8
2018-07-13T22:52:01.364Z,7.1
2018-07-13T22:57:01.245Z,6.6
2018-07-13T23:02:06.303Z,6.8
2018-07-13T23:07:01.239Z,6.7
2018-07-13T23:17:01.314Z,7.0
2018-07-13T23:22:01.363Z,7.4
2018-07-13T23:27:01.233Z,6.9
2018-07-13T23:32:01.296Z,6.4
2018-07-13T23:37:01.239Z,6.2
2018-07-13T23:42:01.301Z,6.1
2018-07-13T23:47:01.229Z,5.8
2018-07-13T23:52:01.377Z,5.7
2018-07-13T23:57:01.241Z,5.8
